Terminal Aerodrome Forecast
Issued by NWS Jackson, MS

Home | Current Version | Previous Version | Text Only | Print | Product List | Glossary On
Versions: 1 2 3 4 5 6 7 8 9 10 11 12
000
FTUS44 KJAN 061720
TAFJAN
TAF
KJAN 061720Z 0618/0718 14007KT P6SM SCT050 SCT250
     FM070200 14003KT 6SM BR SCT007
     FM070800 00000KT 4SM BR BKN007
     FM071300 14003KT P6SM SKC=

USA.gov is the U.S. government's official web portal to all federal, state and local government web resources and services.